KBNL/BNL METAR and TAF weather

Enter ICAO airport designator
Station Type Date Time Source
KBNL METAR 2019/04/19 22:15 UTC NOAA

KBNL 192215Z AUTO 13013G20KT 10SM BKN021 BKN026 BKN031 22/18 A2950 RMK AO2


Station Type Date Time Source
KBNL Decoded METAR 2019/04/19 22:15 UTC NOAA

Station name not available
Apr 19, 2019 - 06:15 PM EDT / 2019.04.19 2215 UTC
Wind: from the SE (130 degrees) at 15 MPH (13 KT) gusting to 23 MPH (20 KT):0
Visibility: 10 mile(s):0
Sky conditions: mostly cloudy
Temperature: 71 F (22 C)
Dew Point: 64 F (18 C)
Relative Humidity: 78%
Pressure (altimeter): 29.5 in. Hg (998 hPa)
ob: KBNL 192215Z AUTO 13013G20KT 10SM BKN021 BKN026 BKN031 22/18 A2950 RMK AO2
cycle: 22

Station Type Date Time Source
KBNL TAF UTC NOAA

Error!

Example: see airport list